Time;durP1;ratioP1;P1;durP2;ratioP2;P2;SDS_P1;SDS_P2;PMS_P1;PMS_P2;Temp;Humidity;BMP_temperature;BMP_pressure;BME280_temperature;BME280_humidity;BME280_pressure;Samples;Min_cycle;Max_cycle;Signal;HPM_P1;HPM_P2
2022/01/04 00:01:57;;;;;;;13.82;7.22;;;9.50;99.90;;;;;;5082597;28;20052;-74
2022/01/04 00:04:24;;;;;;;14.13;7.43;;;9.50;99.90;;;;;;5090935;28;20089;-74
2022/01/04 00:06:49;;;;;;;11.48;6.75;;;9.40;99.90;;;;;;5092318;28;20463;-74
2022/01/04 00:09:15;;;;;;;16.85;7.38;;;9.40;99.90;;;;;;5092826;28;20053;-74
2022/01/04 00:13:20;;;;;;;13.18;7.63;;;9.40;99.90;;;;;;5092234;28;20016;-74
2022/01/04 00:14:34;;;;;;;19.30;9.73;;;9.40;99.90;;;;;;5092859;28;20573;-74
2022/01/04 00:17:00;;;;;;;18.15;8.65;;;9.30;99.90;;;;;;5091419;28;20028;-74
2022/01/04 00:19:25;;;;;;;17.90;10.63;;;9.30;99.90;;;;;;5090428;28;20077;-73
2022/01/04 00:21:52;;;;;;;18.17;9.90;;;9.30;99.90;;;;;;5090790;28;20074;-73
2022/01/04 00:24:18;;;;;;;13.75;7.93;;;9.30;99.90;;;;;;5082536;28;20380;-73
2022/01/04 00:26:43;;;;;;;11.13;9.27;;;9.30;99.90;;;;;;5091781;28;20024;-74
2022/01/04 00:29:09;;;;;;;13.32;9.00;;;9.30;99.90;;;;;;5085206;28;20025;-74
2022/01/04 00:31:34;;;;;;;13.35;9.10;;;9.30;99.90;;;;;;5071807;28;20024;-73
2022/01/04 00:34:00;;;;;;;14.68;9.35;;;9.30;99.90;;;;;;5091651;28;20024;-74
2022/01/04 00:36:25;;;;;;;14.82;8.85;;;9.30;99.90;;;;;;5092533;28;20070;-73
2022/01/04 00:38:51;;;;;;;18.48;9.50;;;9.40;99.90;;;;;;5092172;28;20020;-73
2022/01/04 00:41:16;;;;;;;12.75;8.93;;;9.30;99.90;;;;;;5081256;28;20403;-73
2022/01/04 00:43:44;;;;;;;19.58;10.85;;;9.30;99.90;;;;;;5072463;28;20037;-74
2022/01/04 00:46:16;;;;;;;13.55;9.68;;;9.30;99.90;;;;;;5071622;28;20031;-74
2022/01/04 00:51:26;;;;;;;14.40;8.80;;;9.30;99.90;;;;;;5072299;28;20471;-74
2022/01/04 00:53:51;;;;;;;11.55;9.77;;;9.40;99.90;;;;;;5071726;28;20032;-74
2022/01/04 00:56:17;;;;;;;18.65;11.13;;;9.40;99.90;;;;;;5071890;28;20021;-72
2022/01/04 00:58:42;;;;;;;13.43;10.70;;;9.40;99.90;;;;;;5071553;28;20025;-73
2022/01/04 01:01:08;;;;;;;9.68;8.65;;;9.40;99.90;;;;;;5072517;28;20476;-73
2022/01/04 01:03:33;;;;;;;9.57;8.55;;;9.50;99.90;;;;;;5072385;28;20472;-75
2022/01/04 01:05:59;;;;;;;10.85;9.80;;;9.40;99.90;;;;;;5071656;28;20043;-74
2022/01/04 01:08:24;;;;;;;18.38;10.75;;;9.40;99.90;;;;;;5072009;28;20016;-72
2022/01/04 01:10:50;;;;;;;11.20;9.55;;;9.40;99.90;;;;;;5072267;28;20070;-74
2022/01/04 01:13:16;;;;;;;11.05;9.13;;;9.40;99.90;;;;;;5071276;28;20029;-75
2022/01/04 01:15:45;;;;;;;14.65;9.20;;;9.40;99.90;;;;;;5072247;28;20025;-75
2022/01/04 01:18:11;;;;;;;9.52;8.32;;;9.30;99.90;;;;;;5072353;28;20055;-74
2022/01/04 01:20:37;;;;;;;13.10;8.68;;;9.40;99.90;;;;;;5071667;28;20028;-74
2022/01/04 01:23:03;;;;;;;11.73;9.15;;;9.40;99.90;;;;;;5071960;28;20020;-75
2022/01/04 01:25:28;;;;;;;16.52;8.77;;;9.30;99.90;;;;;;5072100;28;20040;-74
2022/01/04 01:27:54;;;;;;;10.18;9.18;;;9.30;99.90;;;;;;5071288;28;20017;-74
2022/01/04 01:30:21;;;;;;;14.02;8.75;;;9.30;99.90;;;;;;5071687;28;20032;-74
2022/01/04 01:32:48;;;;;;;11.98;9.70;;;9.30;99.90;;;;;;5072159;28;20024;-74
2022/01/04 01:35:14;;;;;;;14.05;9.52;;;9.30;99.90;;;;;;5071057;28;20032;-73
2022/01/04 01:37:39;;;;;;;13.57;9.60;;;9.30;99.90;;;;;;5072045;28;20387;-73
2022/01/04 01:40:05;;;;;;;17.77;9.75;;;9.30;99.90;;;;;;5072129;28;20070;-73
2022/01/04 01:42:31;;;;;;;17.00;10.98;;;9.20;99.90;;;;;;5071682;28;20036;-73
2022/01/04 01:44:57;;;;;;;14.13;8.98;;;9.20;99.90;;;;;;5071762;28;20036;-73
2022/01/04 01:47:23;;;;;;;14.65;11.13;;;9.20;99.90;;;;;;5075119;28;20425;-73
2022/01/04 01:49:49;;;;;;;14.50;9.90;;;9.10;99.90;;;;;;5074481;28;20073;-73
2022/01/04 01:52:15;;;;;;;14.30;9.75;;;9.20;99.90;;;;;;5074870;28;20031;-73
2022/01/04 01:54:40;;;;;;;12.07;10.85;;;9.20;99.90;;;;;;5075386;28;20033;-73
2022/01/04 01:57:06;;;;;;;13.65;10.48;;;9.20;99.90;;;;;;5074273;28;20021;-72
2022/01/04 01:59:31;;;;;;;15.45;10.43;;;9.20;99.90;;;;;;5076038;28;20029;-73
2022/01/04 02:01:57;;;;;;;13.98;11.38;;;9.20;99.90;;;;;;5074507;28;20076;-73
2022/01/04 02:04:23;;;;;;;12.35;10.82;;;9.20;99.90;;;;;;5074870;28;20055;-74
2022/01/04 02:06:49;;;;;;;12.27;10.88;;;9.20;99.90;;;;;;5074904;28;20017;-74
2022/01/04 02:09:15;;;;;;;13.93;10.77;;;9.20;99.90;;;;;;5075225;28;20041;-74
2022/01/04 02:11:41;;;;;;;15.60;10.80;;;9.20;99.90;;;;;;5074968;28;20027;-74
2022/01/04 02:14:07;;;;;;;17.40;10.50;;;9.20;99.90;;;;;;5074644;28;20533;-74
2022/01/04 02:16:32;;;;;;;14.27;11.32;;;9.20;99.90;;;;;;5074535;28;20033;-74
2022/01/04 02:19:04;;;;;;;19.13;11.85;;;9.10;99.90;;;;;;5074909;28;20453;-74
2022/01/04 02:21:31;;;;;;;12.48;11.02;;;9.20;99.90;;;;;;5075049;28;20104;-74
2022/01/04 02:24:03;;;;;;;11.15;10.07;;;9.20;99.90;;;;;;5074154;28;20111;-74
2022/01/04 02:26:31;;;;;;;16.13;11.20;;;9.20;99.90;;;;;;5074750;28;20047;-75
2022/01/04 02:28:57;;;;;;;15.32;11.23;;;9.20;99.90;;;;;;5074503;28;20028;-74
2022/01/04 02:31:22;;;;;;;12.52;11.05;;;9.20;99.90;;;;;;5073862;28;20076;-74
2022/01/04 02:33:48;;;;;;;14.77;12.02;;;9.20;99.90;;;;;;5074701;28;20032;-74
2022/01/04 02:36:13;;;;;;;18.85;12.52;;;9.20;99.90;;;;;;5074356;28;20025;-74
2022/01/04 02:38:39;;;;;;;16.13;11.70;;;9.20;99.90;;;;;;5073958;28;20051;-74
2022/01/04 02:41:05;;;;;;;21.60;12.70;;;9.20;99.90;;;;;;5074175;28;20028;-74
2022/01/04 02:43:30;;;;;;;16.40;11.98;;;9.20;99.90;;;;;;5074447;28;20052;-74
2022/01/04 02:45:56;;;;;;;19.15;12.75;;;9.20;99.90;;;;;;5074052;28;20032;-74
2022/01/04 02:48:22;;;;;;;18.38;13.98;;;9.20;99.90;;;;;;5074030;28;20021;-74
2022/01/04 02:50:48;;;;;;;19.33;13.82;;;9.10;99.90;;;;;;5074633;28;20377;-74
2022/01/04 02:53:14;;;;;;;16.85;12.75;;;9.20;99.90;;;;;;5074094;28;20050;-75
2022/01/04 02:55:39;;;;;;;14.73;12.50;;;9.20;99.90;;;;;;5074036;28;20020;-73
2022/01/04 02:58:05;;;;;;;14.18;11.90;;;9.20;99.90;;;;;;5072993;28;20056;-74
2022/01/04 03:00:30;;;;;;;16.45;12.40;;;9.10;99.90;;;;;;5073821;28;20047;-74
2022/01/04 03:02:56;;;;;;;14.60;11.55;;;9.10;99.90;;;;;;5074038;28;20098;-74
2022/01/04 03:05:21;;;;;;;16.73;12.07;;;9.10;99.90;;;;;;5073070;28;20139;-74
2022/01/04 03:07:47;;;;;;;11.80;10.60;;;9.10;99.90;;;;;;5074062;28;20059;-74
2022/01/04 03:10:13;;;;;;;14.80;12.38;;;9.20;99.90;;;;;;5073460;28;20052;-73
2022/01/04 03:12:42;;;;;;;15.68;11.30;;;9.20;99.90;;;;;;5073137;28;20044;-75
2022/01/04 03:15:08;;;;;;;13.80;10.60;;;9.80;99.90;;;;;;5073415;28;20033;-74
2022/01/04 03:17:33;;;;;;;12.07;10.88;;;9.20;99.90;;;;;;5088003;28;20024;-74
2022/01/04 03:19:59;;;;;;;16.40;11.32;;;9.20;99.90;;;;;;5093548;28;20028;-74
2022/01/04 03:22:24;;;;;;;13.45;10.32;;;9.20;99.90;;;;;;5093712;28;20115;-74
2022/01/04 03:24:50;;;;;;;14.80;10.77;;;9.10;99.90;;;;;;5093822;28;20074;-74
2022/01/04 03:27:15;;;;;;;17.17;10.25;;;9.20;99.90;;;;;;5093168;28;20020;-74
2022/01/04 03:29:41;;;;;;;20.13;10.93;;;9.20;99.90;;;;;;5093904;28;20023;-74
2022/01/04 03:32:07;;;;;;;14.60;11.10;;;9.20;99.90;;;;;;5093500;28;20024;-74
2022/01/04 03:34:32;;;;;;;14.88;11.70;;;9.10;99.90;;;;;;5093145;28;20387;-74
2022/01/04 03:36:58;;;;;;;16.60;12.00;;;9.10;99.90;;;;;;5093694;28;20024;-74
2022/01/04 03:39:23;;;;;;;16.10;11.60;;;9.10;99.90;;;;;;5093461;28;20379;-74
2022/01/04 03:41:51;;;;;;;17.58;11.82;;;9.00;99.90;;;;;;5093125;28;20375;-74
2022/01/04 03:44:20;;;;;;;19.65;11.60;;;9.00;99.90;;;;;;5093500;28;20106;-74
2022/01/04 03:46:51;;;;;;;17.42;11.68;;;9.00;99.90;;;;;;5093363;28;20044;-74
2022/01/04 03:49:19;;;;;;;13.15;11.23;;;9.00;99.90;;;;;;5092652;28;20058;-75
2022/01/04 03:51:49;;;;;;;16.38;11.27;;;9.00;99.90;;;;;;5093816;28;20099;-74
2022/01/04 03:54:15;;;;;;;15.15;11.40;;;9.00;99.90;;;;;;5093465;28;20176;-74
2022/01/04 03:56:40;;;;;;;17.13;10.65;;;9.00;99.90;;;;;;5092848;28;20499;-75
2022/01/04 03:59:06;;;;;;;17.10;11.07;;;9.10;99.90;;;;;;5093128;28;20483;-73
2022/01/04 04:01:32;;;;;;;15.70;10.90;;;9.00;99.90;;;;;;5092772;28;20089;-75
2022/01/04 04:03:57;;;;;;;15.95;11.48;;;9.00;99.90;;;;;;5094157;28;20032;-75
2022/01/04 04:06:23;;;;;;;13.25;10.63;;;9.00;99.90;;;;;;5094745;28;20020;-74
2022/01/04 04:08:49;;;;;;;17.67;11.32;;;8.90;99.90;;;;;;5093217;28;20402;-74
2022/01/04 04:11:14;;;;;;;16.80;10.10;;;9.00;99.90;;;;;;5081931;28;20020;-73
2022/01/04 04:13:40;;;;;;;15.43;9.90;;;9.00;99.90;;;;;;5072817;28;20067;-74
2022/01/04 04:16:06;;;;;;;15.05;11.60;;;9.00;99.90;;;;;;5071925;28;20021;-72
2022/01/04 04:18:31;;;;;;;11.07;9.52;;;8.90;99.90;;;;;;5092769;28;20028;-73
2022/01/04 04:20:57;;;;;;;17.00;10.63;;;8.80;99.90;;;;;;5093411;28;20028;-73
2022/01/04 04:23:22;;;;;;;16.17;11.07;;;8.90;99.90;;;;;;5091515;28;20471;-72
2022/01/04 04:25:48;;;;;;;16.52;10.93;;;8.90;99.90;;;;;;5092960;28;20107;-73
2022/01/04 04:28:14;;;;;;;12.40;10.10;;;8.90;99.90;;;;;;5092639;28;20028;-73
2022/01/04 04:30:39;;;;;;;14.98;9.05;;;8.80;99.90;;;;;;5077523;28;20020;-73
2022/01/04 04:33:05;;;;;;;13.40;11.00;;;8.90;99.90;;;;;;5072268;28;20041;-72
2022/01/04 04:35:31;;;;;;;17.33;11.35;;;8.90;99.90;;;;;;5072844;28;20563;-73
2022/01/04 04:37:59;;;;;;;14.30;10.40;;;8.90;99.90;;;;;;5072022;28;20100;-73
2022/01/04 04:40:24;;;;;;;18.52;13.10;;;8.90;99.90;;;;;;5072583;28;20108;-73
2022/01/04 04:42:50;;;;;;;15.30;12.43;;;8.90;99.90;;;;;;5073140;28;20571;-73
2022/01/04 04:45:16;;;;;;;18.05;12.50;;;8.90;99.90;;;;;;5071471;28;20036;-74
2022/01/04 04:47:41;;;;;;;16.15;12.93;;;8.90;99.90;;;;;;5072325;28;20031;-73
2022/01/04 04:50:10;;;;;;;14.98;11.75;;;8.90;99.90;;;;;;5072245;28;20430;-73
2022/01/04 04:52:36;;;;;;;16.38;12.10;;;8.90;99.90;;;;;;5071371;28;20024;-73
2022/01/04 04:55:06;;;;;;;28.55;12.93;;;8.90;99.90;;;;;;5072565;28;20028;-73
2022/01/04 04:57:32;;;;;;;22.17;12.43;;;8.80;99.90;;;;;;5072252;28;20021;-73
2022/01/04 04:59:57;;;;;;;18.15;11.45;;;8.80;99.90;;;;;;5071827;28;20035;-73
2022/01/04 05:02:23;;;;;;;19.33;10.73;;;8.80;99.90;;;;;;5071891;28;20090;-74
2022/01/04 05:04:48;;;;;;;24.88;12.23;;;8.80;99.90;;;;;;5071280;28;20075;-74
2022/01/04 05:07:14;;;;;;;11.52;10.25;;;8.80;99.90;;;;;;5072293;28;20060;-74
2022/01/04 05:09:40;;;;;;;14.88;10.50;;;8.90;99.90;;;;;;5072532;28;20081;-73
2022/01/04 05:12:06;;;;;;;17.55;9.95;;;9.00;99.90;;;;;;5071175;28;20338;-73
2022/01/04 05:14:32;;;;;;;13.15;10.20;;;8.80;99.90;;;;;;5072085;28;20055;-73
2022/01/04 05:16:58;;;;;;;12.27;9.63;;;8.80;99.90;;;;;;5072167;28;20031;-74
2022/01/04 05:19:23;;;;;;;15.32;10.70;;;8.80;99.90;;;;;;5070958;28;20391;-74
2022/01/04 05:21:49;;;;;;;12.73;10.35;;;8.80;99.90;;;;;;5075491;28;20486;-74
2022/01/04 05:24:14;;;;;;;15.82;11.38;;;8.80;99.90;;;;;;5076056;28;20044;-74
2022/01/04 05:26:40;;;;;;;15.57;10.93;;;8.80;99.90;;;;;;5075315;28;20017;-73
2022/01/04 05:29:06;;;;;;;14.20;10.77;;;8.80;99.90;;;;;;5075669;28;20484;-74
2022/01/04 05:31:31;;;;;;;17.75;11.68;;;8.80;99.90;;;;;;5075814;28;20472;-74
2022/01/04 05:33:57;;;;;;;13.73;11.07;;;8.80;99.90;;;;;;5075012;28;20494;-74
2022/01/04 05:36:22;;;;;;;15.18;10.68;;;8.80;99.90;;;;;;5075506;28;20500;-74
2022/01/04 05:38:48;;;;;;;16.77;10.48;;;8.80;99.90;;;;;;5075984;28;20033;-73
2022/01/04 05:41:14;;;;;;;16.15;11.15;;;8.80;99.90;;;;;;5074886;28;20060;-74
2022/01/04 05:43:40;;;;;;;15.57;9.73;;;8.80;99.90;;;;;;5075668;28;20442;-74
2022/01/04 05:46:06;;;;;;;13.23;9.57;;;8.90;99.90;;;;;;5075144;28;20028;-74
2022/01/04 05:48:31;;;;;;;21.77;10.95;;;8.80;99.90;;;;;;5074653;28;20154;-74
2022/01/04 05:50:57;;;;;;;14.60;10.43;;;8.80;99.90;;;;;;5075617;28;20112;-73
2022/01/04 05:53:22;;;;;;;17.67;11.18;;;8.80;99.90;;;;;;5075461;28;20112;-74
2022/01/04 05:55:48;;;;;;;15.05;10.75;;;8.80;99.90;;;;;;5074926;28;20032;-75
2022/01/04 05:58:14;;;;;;;17.75;11.52;;;8.80;99.90;;;;;;5075012;28;20024;-74
2022/01/04 06:00:39;;;;;;;18.55;10.82;;;8.70;99.90;;;;;;5075130;28;20033;-74
2022/01/04 06:03:05;;;;;;;15.45;10.70;;;8.80;99.90;;;;;;5074260;28;20139;-73
2022/01/04 06:05:30;;;;;;;16.08;11.25;;;8.80;99.90;;;;;;5075002;28;20028;-74
2022/01/04 06:07:56;;;;;;;19.40;11.80;;;8.70;99.90;;;;;;5075442;28;20082;-73
2022/01/04 06:10:22;;;;;;;16.73;11.15;;;8.70;99.90;;;;;;5074372;28;20060;-74
2022/01/04 06:15:17;;;;;;;13.88;10.38;;;8.70;99.90;;;;;;5073512;28;20111;-74
2022/01/04 06:17:45;;;;;;;12.90;11.30;;;8.70;99.90;;;;;;5080669;28;20028;-73
2022/01/04 06:20:14;;;;;;;17.30;10.95;;;8.60;99.90;;;;;;5075327;28;20063;-74
2022/01/04 06:22:40;;;;;;;15.02;10.27;;;8.60;99.90;;;;;;5079404;28;20111;-73
2022/01/04 06:25:15;;;;;;;18.17;11.15;;;8.60;99.90;;;;;;5076680;28;20483;-73
2022/01/04 06:27:41;;;;;;;13.40;10.63;;;8.50;99.90;;;;;;5074888;28;20427;-72
2022/01/04 06:30:08;;;;;;;16.33;10.80;;;8.60;99.90;;;;;;5074290;28;20471;-73
2022/01/04 06:32:34;;;;;;;19.92;11.38;;;8.50;99.90;;;;;;5079636;28;20480;-73
2022/01/04 06:34:59;;;;;;;20.23;11.27;;;8.50;99.90;;;;;;5077422;28;20096;-75
2022/01/04 06:37:25;;;;;;;14.93;11.63;;;8.50;99.90;;;;;;5086374;28;20145;-73
2022/01/04 06:39:51;;;;;;;16.23;10.95;;;8.60;99.90;;;;;;5081412;28;20070;-73
2022/01/04 06:42:16;;;;;;;17.02;12.00;;;8.50;99.90;;;;;;5082847;28;20026;-73
2022/01/04 06:44:43;;;;;;;19.52;11.88;;;8.50;99.90;;;;;;5081813;28;20028;-73
2022/01/04 06:47:10;;;;;;;15.43;11.40;;;8.50;99.90;;;;;;5074183;28;20457;-74
2022/01/04 06:49:36;;;;;;;19.30;12.18;;;8.50;99.90;;;;;;5079937;28;20028;-74
2022/01/04 06:52:03;;;;;;;19.35;12.32;;;8.60;99.90;;;;;;5087958;28;20103;-74
2022/01/04 06:54:29;;;;;;;16.45;11.73;;;8.60;99.90;;;;;;5076734;28;20055;-73
2022/01/04 06:56:54;;;;;;;14.75;11.93;;;8.50;99.90;;;;;;5093339;28;20479;-73
2022/01/04 06:59:20;;;;;;;17.40;11.18;;;8.60;99.90;;;;;;5072497;28;20055;-73
2022/01/04 07:01:46;;;;;;;20.15;13.57;;;8.60;99.90;;;;;;5087549;28;20033;-73
2022/01/04 07:04:13;;;;;;;21.58;12.60;;;8.60;99.90;;;;;;5083753;28;20043;-75
2022/01/04 07:06:39;;;;;;;15.63;11.82;;;8.60;99.90;;;;;;5084686;28;20030;-73
2022/01/04 07:09:07;;;;;;;13.07;11.20;;;8.60;99.90;;;;;;5087473;28;20027;-73
2022/01/04 07:11:33;;;;;;;21.27;12.18;;;8.60;99.90;;;;;;5084385;28;20024;-73
2022/01/04 07:13:59;;;;;;;17.38;12.52;;;8.60;99.90;;;;;;5073841;28;20020;-73
2022/01/04 07:16:24;;;;;;;18.17;12.90;;;8.60;99.90;;;;;;5081500;28;20024;-73
2022/01/04 07:18:50;;;;;;;20.40;12.65;;;8.60;99.90;;;;;;5078210;28;20393;-74
2022/01/04 07:21:16;;;;;;;19.92;12.80;;;8.60;99.90;;;;;;5083704;28;20543;-74
2022/01/04 07:23:43;;;;;;;18.27;13.23;;;8.60;99.90;;;;;;5093163;28;20016;-74
2022/01/04 07:26:14;;;;;;;19.13;13.15;;;8.60;99.90;;;;;;5089415;28;20482;-73
2022/01/04 07:28:42;;;;;;;22.83;13.85;;;8.60;99.90;;;;;;5093172;28;20103;-74
2022/01/04 07:31:08;;;;;;;21.88;13.60;;;8.60;99.90;;;;;;5083224;28;20468;-74
2022/01/04 07:33:34;;;;;;;28.58;14.35;;;8.60;99.90;;;;;;5080846;28;20035;-73
2022/01/04 07:36:00;;;;;;;20.98;13.73;;;8.60;99.90;;;;;;5079447;28;20101;-73
2022/01/04 07:38:26;;;;;;;18.50;13.77;;;8.50;99.90;;;;;;5089012;28;20487;-73
2022/01/04 07:40:51;;;;;;;19.85;13.32;;;8.50;99.90;;;;;;5089393;28;20066;-73
2022/01/04 07:43:17;;;;;;;23.73;14.15;;;8.50;99.90;;;;;;5089789;28;20256;-73
2022/01/04 07:45:42;;;;;;;23.05;13.70;;;8.60;99.90;;;;;;5084220;28;20381;-73
2022/01/04 07:48:10;;;;;;;20.48;13.40;;;8.60;99.90;;;;;;5077646;28;20108;-73
2022/01/04 07:50:40;;;;;;;22.23;13.90;;;8.60;99.90;;;;;;5072035;28;20034;-73
2022/01/04 07:53:07;;;;;;;18.33;13.77;;;8.70;99.90;;;;;;5071629;28;20021;-73
2022/01/04 07:55:32;;;;;;;26.73;15.02;;;8.70;99.90;;;;;;5071404;28;20090;-73
2022/01/04 07:57:58;;;;;;;28.33;15.55;;;8.70;99.90;;;;;;5085518;28;20020;-73
2022/01/04 08:00:25;;;;;;;26.63;14.98;;;8.70;99.90;;;;;;5088064;28;20498;-73
2022/01/04 08:02:51;;;;;;;28.08;15.70;;;8.70;99.90;;;;;;5084822;28;20696;-73
2022/01/04 08:05:17;;;;;;;23.40;13.77;;;8.70;99.90;;;;;;5089875;28;20036;-74
2022/01/04 08:07:43;;;;;;;20.20;14.32;;;8.70;99.90;;;;;;5087083;28;20020;-73
2022/01/04 08:10:10;;;;;;;21.00;15.00;;;8.60;99.90;;;;;;5089931;28;20016;-73
2022/01/04 08:12:35;;;;;;;21.83;14.30;;;8.60;99.90;;;;;;5091108;28;20023;-73
2022/01/04 08:15:05;;;;;;;25.42;15.18;;;8.70;99.90;;;;;;5089139;28;20020;-73
2022/01/04 08:17:31;;;;;;;25.13;14.60;;;8.70;99.90;;;;;;5086916;28;20516;-74
2022/01/04 08:19:57;;;;;;;18.80;13.63;;;8.70;99.90;;;;;;5090826;28;20060;-74
2022/01/04 08:22:22;;;;;;;19.90;13.73;;;8.70;99.90;;;;;;5088308;28;20035;-74
2022/01/04 08:24:48;;;;;;;26.38;14.88;;;8.80;99.90;;;;;;5089656;28;20032;-73
2022/01/04 08:27:14;;;;;;;31.85;14.68;;;8.80;99.90;;;;;;5091025;28;20024;-73
2022/01/04 08:29:39;;;;;;;31.33;15.07;;;8.90;99.90;;;;;;5091176;28;20023;-73
2022/01/04 08:32:05;;;;;;;20.02;14.68;;;8.80;99.90;;;;;;5073173;28;20099;-71
2022/01/04 08:34:30;;;;;;;26.10;16.55;;;8.90;99.90;;;;;;5071430;28;20044;-71
2022/01/04 08:36:56;;;;;;;19.95;12.15;;;8.90;99.90;;;;;;5089988;28;20099;-71
2022/01/04 08:39:26;;;;;;;18.63;14.18;;;8.80;99.90;;;;;;5084093;28;20499;-73
2022/01/04 08:41:55;;;;;;;31.05;14.30;;;8.70;99.90;;;;;;5085886;28;20060;-73
2022/01/04 08:44:21;;;;;;;27.80;15.77;;;8.70;99.90;;;;;;5090862;28;20032;-73
2022/01/04 08:46:47;;;;;;;23.85;14.95;;;8.70;99.90;;;;;;5087824;28;20032;-73
2022/01/04 08:49:12;;;;;;;21.52;15.02;;;8.70;99.90;;;;;;5090472;28;20031;-73
2022/01/04 08:51:38;;;;;;;22.52;14.50;;;8.80;99.90;;;;;;5089628;28;20012;-73
2022/01/04 08:54:05;;;;;;;15.60;12.07;;;8.70;99.90;;;;;;5088187;28;20035;-73
2022/01/04 08:56:31;;;;;;;22.80;14.52;;;8.80;99.90;;;;;;5077698;28;20032;-73
2022/01/04 08:58:57;;;;;;;21.73;12.80;;;8.80;99.90;;;;;;5076613;28;20483;-73
2022/01/04 09:01:23;;;;;;;18.23;11.60;;;8.80;99.90;;;;;;5088884;28;20035;-71
2022/01/04 09:03:48;;;;;;;12.30;8.90;;;8.70;99.90;;;;;;5082194;28;20110;-72
2022/01/04 09:06:15;;;;;;;10.95;6.65;;;8.70;99.90;;;;;;5079534;28;20028;-73
2022/01/04 09:08:41;;;;;;;14.18;6.22;;;8.70;99.90;;;;;;5081735;28;20074;-72
2022/01/04 09:11:07;;;;;;;8.25;4.97;;;8.70;99.90;;;;;;5080221;28;20037;-72
2022/01/04 09:13:37;;;;;;;8.65;5.22;;;8.70;99.90;;;;;;5083654;28;20023;-75
2022/01/04 09:18:46;;;;;;;7.40;5.63;;;8.70;99.90;;;;;;5083834;28;20029;-72
2022/01/04 09:21:18;;;;;;;4.57;2.53;;;8.70;99.90;;;;;;5090359;28;20497;-72
2022/01/04 09:23:45;;;;;;;5.15;3.05;;;8.70;99.90;;;;;;5093979;28;20371;-73
2022/01/04 09:26:11;;;;;;;4.78;2.78;;;8.70;99.90;;;;;;5093207;28;20036;-73
2022/01/04 09:28:37;;;;;;;4.35;2.60;;;8.70;99.90;;;;;;5094213;28;20103;-73
2022/01/04 09:31:04;;;;;;;4.78;2.28;;;8.70;99.90;;;;;;5091038;28;20104;-74
2022/01/04 09:33:30;;;;;;;3.80;1.85;;;8.70;99.90;;;;;;5082207;28;20025;-73
2022/01/04 09:35:56;;;;;;;2.58;2.30;;;8.70;99.90;;;;;;5084254;28;20058;-74
2022/01/04 09:38:22;;;;;;;2.65;2.45;;;8.80;99.90;;;;;;5092015;28;20331;-72
2022/01/04 09:40:49;;;;;;;4.07;3.42;;;8.80;99.90;;;;;;5091571;28;20524;-72
2022/01/04 09:43:16;;;;;;;8.20;3.97;;;8.70;99.90;;;;;;5088696;28;20039;-72
2022/01/04 09:45:41;;;;;;;6.88;4.85;;;8.80;99.90;;;;;;5086313;28;20494;-72
2022/01/04 09:48:07;;;;;;;6.22;5.03;;;8.80;99.90;;;;;;5080842;28;20020;-72
2022/01/04 09:50:35;;;;;;;6.55;5.95;;;8.80;99.90;;;;;;5080648;28;20115;-72
2022/01/04 09:53:02;;;;;;;9.32;6.65;;;8.90;99.90;;;;;;5081493;28;20021;-72
2022/01/04 09:55:28;;;;;;;7.78;7.00;;;8.90;99.90;;;;;;5079064;28;20107;-71
2022/01/04 09:57:54;;;;;;;9.13;7.95;;;8.80;99.90;;;;;;5081207;28;20108;-72
2022/01/04 10:00:19;;;;;;;15.23;8.45;;;9.00;99.90;;;;;;5075834;28;20082;-74
2022/01/04 10:02:49;;;;;;;11.55;9.20;;;9.00;99.90;;;;;;5079210;28;20085;-74
2022/01/04 10:05:19;;;;;;;13.00;9.75;;;9.00;99.90;;;;;;5082266;28;20134;-74
2022/01/04 10:07:47;;;;;;;14.18;9.70;;;9.00;99.90;;;;;;5079314;28;20049;-73
2022/01/04 10:10:18;;;;;;;19.73;11.82;;;9.00;99.90;;;;;;5084149;28;20642;-75
2022/01/04 10:12:52;;;;;;;18.05;12.45;;;9.00;99.90;;;;;;5085119;28;20024;-75
2022/01/04 10:15:41;;;;;;;12.02;10.77;;;9.00;99.90;;;;;;5081623;28;20119;-75
2022/01/04 10:18:13;;;;;;;18.17;10.77;;;9.00;99.90;;;;;;5082425;28;20028;-74
2022/01/04 10:20:40;;;;;;;16.30;10.60;;;9.10;99.90;;;;;;5079558;28;20025;-75
2022/01/04 10:23:11;;;;;;;19.00;12.07;;;9.00;99.90;;;;;;5080227;28;20023;-74
2022/01/04 10:25:37;;;;;;;23.38;12.93;;;9.00;99.90;;;;;;5084058;28;20040;-75
2022/01/04 10:28:03;;;;;;;19.65;11.95;;;9.00;99.90;;;;;;5084473;28;20375;-74
2022/01/04 10:30:36;;;;;;;23.67;13.43;;;9.00;99.90;;;;;;5080285;28;20027;-74
2022/01/04 10:33:14;;;;;;;19.48;12.10;;;9.00;99.90;;;;;;5082890;28;20108;-74
2022/01/04 10:35:54;;;;;;;19.55;11.88;;;9.00;99.90;;;;;;5082885;28;20298;-74
2022/01/04 10:38:30;;;;;;;20.30;11.47;;;9.10;99.90;;;;;;5082604;28;20043;-74
2022/01/04 10:41:20;;;;;;;24.25;12.38;;;9.10;99.90;;;;;;5083371;28;20610;-74
2022/01/04 10:43:50;;;;;;;15.40;10.57;;;9.20;99.90;;;;;;5081877;28;20086;-73
2022/01/04 10:46:19;;;;;;;18.23;10.80;;;9.20;99.90;;;;;;5083813;28;20039;-73
2022/01/04 10:48:50;;;;;;;21.27;10.32;;;9.20;99.90;;;;;;5084260;28;20250;-73
2022/01/04 10:51:21;;;;;;;21.38;9.88;;;9.20;99.90;;;;;;5081716;28;20036;-73
2022/01/04 10:53:49;;;;;;;22.52;10.40;;;9.10;99.90;;;;;;5082414;28;20145;-72
2022/01/04 10:56:17;;;;;;;15.13;9.00;;;9.10;99.90;;;;;;5082033;28;20035;-71
2022/01/04 10:58:50;;;;;;;13.85;9.13;;;9.20;99.90;;;;;;5082200;28;20107;-74
2022/01/04 11:01:22;;;;;;;20.95;9.00;;;9.20;99.90;;;;;;5080730;28;21610;-74
2022/01/04 11:03:53;;;;;;;22.92;9.60;;;9.20;99.90;;;;;;5080543;28;20074;-73
2022/01/04 11:06:25;;;;;;;17.02;9.27;;;9.30;99.90;;;;;;5082627;28;20020;-72
2022/01/04 11:08:51;;;;;;;18.63;8.07;;;9.30;99.90;;;;;;5084498;28;20230;-73
2022/01/04 11:11:17;;;;;;;20.98;8.98;;;9.30;99.90;;;;;;5081927;28;20219;-76
2022/01/04 11:13:43;;;;;;;16.50;7.65;;;9.30;99.90;;;;;;5087126;28;20024;-74
2022/01/04 11:16:09;;;;;;;16.75;6.43;;;9.30;99.90;;;;;;5088094;28;20012;-74
2022/01/04 11:18:41;;;;;;;28.95;6.18;;;9.30;99.90;;;;;;5085217;28;20024;-74
2022/01/04 11:21:14;;;;;;;18.60;5.55;;;9.20;99.90;;;;;;5086230;28;20043;-73
2022/01/04 11:23:41;;;;;;;17.23;4.43;;;9.20;99.90;;;;;;5087050;28;20024;-73
2022/01/04 11:26:09;;;;;;;13.68;2.47;;;9.10;99.90;;;;;;5090257;28;20499;-72
2022/01/04 11:28:40;;;;;;;8.45;1.65;;;9.00;99.90;;;;;;5091772;28;20039;-73
2022/01/04 11:31:37;;;;;;;20.38;3.35;;;8.80;99.90;;;;;;5081619;28;20046;-75
2022/01/04 11:34:13;;;;;;;9.02;1.58;;;8.60;99.90;;;;;;5081786;28;20451;-75
2022/01/04 11:36:44;;;;;;;10.02;1.42;;;8.40;99.90;;;;;;5079813;28;20044;-75
2022/01/04 11:39:30;;;;;;;5.57;0.98;;;8.40;99.90;;;;;;5078512;28;20110;-75
2022/01/04 11:41:57;;;;;;;7.28;1.10;;;8.40;99.90;;;;;;5077320;28;20021;-75
2022/01/04 11:44:28;;;;;;;5.93;0.80;;;8.40;99.90;;;;;;5077646;28;20043;-75
2022/01/04 11:47:05;;;;;;;11.65;1.10;;;8.30;99.90;;;;;;5080054;28;20372;-75
2022/01/04 11:49:32;;;;;;;3.42;0.68;;;8.20;99.90;;;;;;5079712;28;20023;-75
2022/01/04 11:51:58;;;;;;;4.00;0.80;;;8.20;99.90;;;;;;5081131;28;20035;-75
2022/01/04 11:54:30;;;;;;;11.75;1.10;;;8.20;99.90;;;;;;5075743;28;20484;-75
2022/01/04 11:56:59;;;;;;;8.82;2.13;;;8.20;99.90;;;;;;5077137;28;20047;-73
2022/01/04 11:59:32;;;;;;;5.80;0.60;;;8.10;99.90;;;;;;5082329;28;20380;-73
2022/01/04 12:02:26;;;;;;;7.53;1.45;;;8.10;99.90;;;;;;5076557;28;20048;-74
2022/01/04 12:04:57;;;;;;;3.08;0.75;;;8.20;99.90;;;;;;5077341;28;20040;-73
2022/01/04 12:07:41;;;;;;;5.95;0.55;;;8.10;99.90;;;;;;5081429;28;20379;-74
2022/01/04 12:10:22;;;;;;;2.50;1.27;;;8.10;99.90;;;;;;5082567;28;20020;-74
2022/01/04 12:13:09;;;;;;;3.95;0.95;;;8.10;99.90;;;;;;5081866;28;20029;-74
2022/01/04 12:15:34;;;;;;;3.47;0.90;;;8.10;99.90;;;;;;5083029;28;20031;-75
2022/01/04 12:18:08;;;;;;;8.20;0.73;;;8.10;99.90;;;;;;5082333;28;20361;-74
2022/01/04 12:20:42;;;;;;;3.80;1.23;;;8.10;99.90;;;;;;5081297;28;20024;-75
2022/01/04 12:23:26;;;;;;;7.13;1.00;;;8.00;99.90;;;;;;5078588;28;20025;-74
2022/01/04 12:26:12;;;;;;;2.67;0.82;;;8.10;99.90;;;;;;5081499;28;20056;-76
2022/01/04 12:28:40;;;;;;;4.32;0.80;;;8.00;99.90;;;;;;5080253;28;20123;-74
2022/01/04 12:31:27;;;;;;;4.20;0.90;;;8.00;99.90;;;;;;5079571;28;20110;-74
2022/01/04 12:34:00;;;;;;;9.02;1.50;;;8.00;99.90;;;;;;5081711;28;20513;-73
2022/01/04 12:36:34;;;;;;;5.72;1.35;;;8.00;99.90;;;;;;5080733;28;20518;-74
2022/01/04 12:39:09;;;;;;;3.80;1.02;;;7.90;99.90;;;;;;5080828;28;20497;-75
2022/01/04 12:41:35;;;;;;;10.95;1.45;;;7.90;99.90;;;;;;5081479;28;20043;-74
2022/01/04 12:44:03;;;;;;;3.47;0.80;;;7.90;99.90;;;;;;5080443;28;20390;-74
2022/01/04 12:46:31;;;;;;;7.65;1.10;;;7.90;99.90;;;;;;5081914;28;20021;-73
2022/01/04 12:49:01;;;;;;;4.72;1.40;;;7.90;99.90;;;;;;5080086;28;20016;-75
2022/01/04 12:51:33;;;;;;;6.50;0.90;;;8.00;99.90;;;;;;5079901;28;20455;-76
2022/01/04 12:54:02;;;;;;;8.38;0.90;;;7.90;99.90;;;;;;5080361;28;20020;-76